createdAt,value
2023-04-11T00:00:19.392Z,7.57
2023-04-11T00:02:47.226Z,9.45
2023-04-11T00:05:17.936Z,14.88
2023-04-11T00:07:45.628Z,12.50
2023-04-11T00:10:13.347Z,11.73
2023-04-11T00:12:41.120Z,6.53
2023-04-11T00:15:09.794Z,8.48
2023-04-11T00:17:37.906Z,7.70
2023-04-11T00:20:08.312Z,7.60
2023-04-11T00:22:36.686Z,8.23
2023-04-11T00:25:04.370Z,8.15
2023-04-11T00:27:32.118Z,8.63
2023-04-11T00:30:00.288Z,7.75
2023-04-11T00:32:28.332Z,7.15
2023-04-11T00:34:58.064Z,8.48
2023-04-11T00:37:25.861Z,7.60
2023-04-11T00:39:56.091Z,6.05
2023-04-11T00:42:23.890Z,8.15
2023-04-11T00:44:51.773Z,5.43
2023-04-11T00:47:19.497Z,9.73
2023-04-11T00:49:47.296Z,9.95
2023-04-11T00:52:15.175Z,8.35
2023-04-11T00:54:42.915Z,6.18
2023-04-11T00:57:10.784Z,8.75
2023-04-11T00:59:38.806Z,8.43
2023-04-11T01:02:06.587Z,7.97
2023-04-11T01:04:34.316Z,9.27
2023-04-11T01:07:06.279Z,10.27
2023-04-11T01:09:35.880Z,10.75
2023-04-11T01:12:04.552Z,7.05
2023-04-11T01:14:32.310Z,7.88
2023-04-11T01:17:02.291Z,6.97
2023-04-11T01:19:30.440Z,9.45
2023-04-11T01:21:58.811Z,7.97
2023-04-11T01:24:26.478Z,12.32
2023-04-11T01:26:54.396Z,8.70
2023-04-11T01:29:22.101Z,9.45
2023-04-11T01:31:50.516Z,11.23
2023-04-11T01:34:19.425Z,15.20
2023-04-11T01:36:47.381Z,11.18
2023-04-11T01:39:15.064Z,7.45
2023-04-11T01:41:42.981Z,9.52
2023-04-11T01:44:10.670Z,10.10
2023-04-11T01:46:38.488Z,10.15
2023-04-11T01:49:07.916Z,6.22
2023-04-11T01:51:36.350Z,5.45
2023-04-11T01:54:04.036Z,11.25
2023-04-11T01:56:31.932Z,8.20
2023-04-11T01:58:59.687Z,9.10
2023-04-11T02:01:27.514Z,14.32
2023-04-11T02:03:55.738Z,13.90
2023-04-11T02:06:23.569Z,12.00
2023-04-11T02:08:51.506Z,9.68
2023-04-11T02:11:19.306Z,6.90
2023-04-11T02:13:47.256Z,8.15
2023-04-11T02:16:15.526Z,7.93
2023-04-11T02:18:43.871Z,5.88
2023-04-11T02:21:11.910Z,10.98
2023-04-11T02:23:39.576Z,8.75
2023-04-11T02:26:07.382Z,8.18
2023-04-11T02:28:37.590Z,7.65
2023-04-11T02:31:05.398Z,5.78
2023-04-11T02:33:33.145Z,8.63
2023-04-11T02:36:00.884Z,8.75
2023-04-11T02:38:29.042Z,6.07
2023-04-11T02:40:56.697Z,11.57
2023-04-11T02:43:24.518Z,8.07
2023-04-11T02:45:56.373Z,6.93
2023-04-11T02:48:29.968Z,6.35
2023-04-11T02:50:57.841Z,4.68
2023-04-11T02:53:25.703Z,8.07
2023-04-11T02:55:53.527Z,10.65
2023-04-11T02:58:21.328Z,10.55
2023-04-11T03:00:51.528Z,7.88
2023-04-11T03:03:19.586Z,7.72
2023-04-11T03:05:47.841Z,6.57
2023-04-11T03:08:15.704Z,12.73
2023-04-11T03:10:43.600Z,6.93
2023-04-11T03:13:11.872Z,6.80
2023-04-11T03:15:39.610Z,12.02
2023-04-11T03:18:07.349Z,18.65
2023-04-11T03:20:35.189Z,5.28
2023-04-11T03:23:02.917Z,10.30
2023-04-11T03:25:30.988Z,10.90
2023-04-11T03:27:58.762Z,8.52
2023-04-11T03:30:26.510Z,7.60
2023-04-11T03:32:54.465Z,12.15
2023-04-11T03:35:22.926Z,5.43
2023-04-11T03:37:51.264Z,9.52
2023-04-11T03:40:19.235Z,13.85
2023-04-11T03:42:47.321Z,7.97
2023-04-11T03:45:14.921Z,6.50
2023-04-11T03:47:42.973Z,7.43
2023-04-11T03:50:11.186Z,9.35
2023-04-11T03:52:38.970Z,8.10
2023-04-11T03:55:07.036Z,9.18
2023-04-11T03:57:34.827Z,7.88
2023-04-11T04:00:04.104Z,12.55
2023-04-11T04:02:32.167Z,9.88
2023-04-11T04:05:00.211Z,18.30
2023-04-11T04:07:30.316Z,10.45
2023-04-11T04:09:58.023Z,16.13
2023-04-11T04:12:26.461Z,14.20
2023-04-11T04:14:54.143Z,13.70
2023-04-11T04:17:21.993Z,7.25
2023-04-11T04:19:52.972Z,16.27
2023-04-11T04:22:22.404Z,15.90
2023-04-11T04:24:50.120Z,11.07
2023-04-11T04:27:18.437Z,9.73
2023-04-11T04:29:47.193Z,13.23
2023-04-11T04:32:25.079Z,7.05
2023-04-11T04:34:57.976Z,9.10
2023-04-11T04:37:28.893Z,6.45
2023-04-11T04:39:57.184Z,10.93
2023-04-11T04:42:26.000Z,10.40
2023-04-11T04:44:54.105Z,9.27
2023-04-11T04:47:25.223Z,5.93
2023-04-11T04:49:57.075Z,4.38
2023-04-11T04:52:26.003Z,17.20
2023-04-11T04:54:53.659Z,19.55
2023-04-11T04:57:21.479Z,9.38
2023-04-11T04:59:49.600Z,28.55
2023-04-11T05:02:17.479Z,14.30
2023-04-11T05:04:48.812Z,19.88
2023-04-11T05:07:17.002Z,13.98
2023-04-11T05:09:44.706Z,13.10
2023-04-11T05:12:13.925Z,26.73
2023-04-11T05:14:44.919Z,19.40
2023-04-11T05:17:12.684Z,19.80
2023-04-11T05:19:40.524Z,19.17
2023-04-11T05:22:08.125Z,35.60
2023-04-11T05:24:35.969Z,19.08
2023-04-11T05:27:03.688Z,35.22
2023-04-11T05:29:31.524Z,22.80
2023-04-11T05:31:59.292Z,16.83
2023-04-11T05:34:27.031Z,20.30
2023-04-11T05:36:55.478Z,14.45
2023-04-11T05:39:23.221Z,33.13
2023-04-11T05:41:51.214Z,23.00
2023-04-11T05:44:19.020Z,28.85
2023-04-11T05:46:49.389Z,24.27
2023-04-11T05:49:17.053Z,24.42
2023-04-11T05:51:44.723Z,24.48
2023-04-11T05:54:12.748Z,59.35
2023-04-11T05:56:42.590Z,35.75
2023-04-11T05:59:10.551Z,27.17
2023-04-11T06:01:39.971Z,33.15
2023-04-11T06:04:07.859Z,37.47
2023-04-11T06:06:36.249Z,43.83
2023-04-11T06:09:05.207Z,31.75
2023-04-11T06:11:33.012Z,26.55
2023-04-11T06:14:00.878Z,32.58
2023-04-11T06:16:29.259Z,44.65
2023-04-11T06:18:57.185Z,22.35
2023-04-11T06:21:25.250Z,40.50
2023-04-11T06:23:52.848Z,30.77
2023-04-11T06:26:23.655Z,48.50
2023-04-11T06:28:51.432Z,73.18
2023-04-11T06:31:19.258Z,44.85
2023-04-11T06:33:47.431Z,32.28
2023-04-11T06:36:15.733Z,45.17
2023-04-11T06:38:43.674Z,55.60
2023-04-11T06:41:11.664Z,47.53
2023-04-11T06:43:39.309Z,57.92
2023-04-11T06:46:08.437Z,41.85
2023-04-11T06:48:36.397Z,28.92
2023-04-11T06:51:04.052Z,76.55
2023-04-11T06:53:31.730Z,41.13
2023-04-11T06:56:00.816Z,53.53
2023-04-11T06:58:28.766Z,85.97
2023-04-11T07:00:56.568Z,51.63
2023-04-11T07:03:34.614Z,61.65
2023-04-11T07:06:02.572Z,81.97
2023-04-11T07:08:31.118Z,58.38
2023-04-11T07:11:06.620Z,81.43
2023-04-11T07:13:34.500Z,77.45
2023-04-11T07:16:02.118Z,56.33
2023-04-11T07:18:30.806Z,75.50
2023-04-11T07:20:58.783Z,66.15
2023-04-11T07:23:26.505Z,55.85
2023-04-11T07:25:54.581Z,81.93
2023-04-11T07:28:22.256Z,56.92
2023-04-11T07:30:49.964Z,41.40
2023-04-11T07:33:17.737Z,45.67
2023-04-11T07:35:47.660Z,27.88
2023-04-11T07:40:44.043Z,48.53
2023-04-11T07:43:12.124Z,30.50
2023-04-11T07:45:40.805Z,43.17
2023-04-11T07:48:08.694Z,49.72
2023-04-11T07:50:39.048Z,36.75
2023-04-11T07:53:08.052Z,41.63
2023-04-11T07:55:35.869Z,41.13
2023-04-11T07:58:03.586Z,39.22
2023-04-11T08:00:33.296Z,41.72
2023-04-11T08:03:07.437Z,56.47
2023-04-11T08:05:36.045Z,37.75
2023-04-11T08:08:04.066Z,57.30
2023-04-11T08:10:40.746Z,39.25
2023-04-11T08:13:08.860Z,52.38
2023-04-11T08:15:38.986Z,50.63
2023-04-11T08:18:11.761Z,40.75
2023-04-11T08:20:40.870Z,40.47
2023-04-11T08:23:10.696Z,48.70
2023-04-11T08:25:39.245Z,44.15
2023-04-11T08:28:10.115Z,72.90
2023-04-11T08:30:37.927Z,52.05
2023-04-11T08:33:05.590Z,70.55
2023-04-11T08:35:33.315Z,85.60
2023-04-11T08:38:01.446Z,51.78
2023-04-11T08:40:29.396Z,55.17
2023-04-11T08:43:00.832Z,43.45
2023-04-11T08:45:29.833Z,65.80
2023-04-11T08:48:00.172Z,47.60
2023-04-11T08:50:30.217Z,51.50
2023-04-11T08:53:00.150Z,57.83
2023-04-11T08:55:28.048Z,41.63
2023-04-11T08:57:59.723Z,37.22
2023-04-11T09:00:29.275Z,61.42
2023-04-11T09:02:57.418Z,49.17
2023-04-11T09:05:42.920Z,33.97
2023-04-11T09:08:12.538Z,36.80
2023-04-11T09:10:41.132Z,47.63
2023-04-11T09:13:23.066Z,36.28
2023-04-11T09:16:17.871Z,61.15
2023-04-11T09:18:47.051Z,69.07
2023-04-11T09:21:15.634Z,61.97
2023-04-11T09:23:46.173Z,69.72
2023-04-11T09:26:14.098Z,61.38
2023-04-11T09:28:43.232Z,54.10
2023-04-11T09:31:13.648Z,52.28
2023-04-11T09:33:52.938Z,46.45
2023-04-11T09:36:23.032Z,37.22
2023-04-11T09:38:54.226Z,34.58
2023-04-11T09:41:39.617Z,31.80
2023-04-11T09:44:07.524Z,27.75
2023-04-11T09:46:36.200Z,41.00
2023-04-11T09:49:04.489Z,44.90
2023-04-11T09:51:37.047Z,58.05
2023-04-11T09:54:06.035Z,70.38
2023-04-11T09:56:35.043Z,72.80
2023-04-11T09:59:03.957Z,46.72
2023-04-11T10:01:31.741Z,94.18
2023-04-11T10:04:01.228Z,52.40
2023-04-11T10:09:13.380Z,92.22
2023-04-11T10:11:46.105Z,74.28
2023-04-11T10:14:44.459Z,97.80
2023-04-11T10:17:22.976Z,78.30
2023-04-11T10:19:56.665Z,43.22
2023-04-11T10:22:45.297Z,49.13
2023-04-11T10:25:19.668Z,30.25
2023-04-11T10:27:49.912Z,25.33
2023-04-11T10:30:17.911Z,39.63
2023-04-11T10:33:05.507Z,38.78
2023-04-11T10:35:34.038Z,21.92
2023-04-11T10:38:02.334Z,40.35
2023-04-11T10:40:30.288Z,29.77
2023-04-11T10:42:58.300Z,35.40
2023-04-11T10:45:34.487Z,23.73
2023-04-11T10:48:03.636Z,40.75
2023-04-11T10:50:34.533Z,30.08
2023-04-11T10:53:06.548Z,78.65
2023-04-11T10:55:50.301Z,82.95
2023-04-11T10:58:21.718Z,78.15
2023-04-11T11:00:52.733Z,70.15
2023-04-11T11:03:20.533Z,58.75
2023-04-11T11:05:58.270Z,78.25
2023-04-11T11:08:38.266Z,65.82
2023-04-11T11:11:07.944Z,72.30
2023-04-11T11:16:14.949Z,86.70
2023-04-11T11:18:49.023Z,80.13
2023-04-11T11:21:26.539Z,87.22
2023-04-11T11:23:56.132Z,38.25
2023-04-11T11:26:25.020Z,66.57
2023-04-11T11:28:53.064Z,68.03
2023-04-11T11:31:21.022Z,68.60
2023-04-11T11:33:48.755Z,49.33
2023-04-11T11:36:22.379Z,27.77
2023-04-11T11:38:50.228Z,22.85
2023-04-11T11:41:18.072Z,38.35
2023-04-11T11:43:47.929Z,42.65
2023-04-11T11:46:15.778Z,53.40
2023-04-11T11:48:44.269Z,53.42
2023-04-11T11:51:12.131Z,53.45
2023-04-11T11:53:40.049Z,47.40
2023-04-11T11:56:14.352Z,34.80
2023-04-11T11:58:45.618Z,38.83
2023-04-11T12:03:42.860Z,50.42
2023-04-11T12:06:11.298Z,33.50
2023-04-11T12:08:50.129Z,67.75
2023-04-11T12:11:28.859Z,85.85
2023-04-11T12:13:56.982Z,74.45
2023-04-11T12:16:24.981Z,53.13
2023-04-11T12:19:00.774Z,34.42
2023-04-11T12:21:28.652Z,37.03
2023-04-11T12:23:56.484Z,44.15
2023-04-11T12:26:25.453Z,36.40
2023-04-11T12:28:54.600Z,41.95
2023-04-11T12:31:22.783Z,28.88
2023-04-11T12:33:50.609Z,41.03
2023-04-11T12:36:18.739Z,42.55
2023-04-11T12:38:46.673Z,29.83
2023-04-11T12:41:31.497Z,33.08
2023-04-11T12:44:04.001Z,55.65
2023-04-11T12:49:01.714Z,30.77
2023-04-11T12:51:31.451Z,34.15
2023-04-11T12:54:01.077Z,36.42
2023-04-11T12:58:58.959Z,31.80
2023-04-11T13:01:29.373Z,26.90
2023-04-11T13:03:59.964Z,29.70
2023-04-11T13:06:28.397Z,41.53
2023-04-11T13:08:58.543Z,27.50
2023-04-11T13:11:26.439Z,72.28
2023-04-11T13:13:54.422Z,36.47
2023-04-11T13:16:22.592Z,28.67
2023-04-11T13:18:50.375Z,31.92
2023-04-11T13:21:18.068Z,32.78
2023-04-11T13:23:46.097Z,30.92
2023-04-11T13:26:15.958Z,21.75
2023-04-11T13:28:43.625Z,50.17
2023-04-11T13:31:11.553Z,36.22
2023-04-11T13:33:42.142Z,28.60
2023-04-11T13:36:10.622Z,32.67
2023-04-11T13:38:39.394Z,38.78
2023-04-11T13:41:07.349Z,23.55
2023-04-11T13:43:35.289Z,34.03
2023-04-11T13:46:06.170Z,72.93
2023-04-11T13:48:33.866Z,89.32
2023-04-11T13:51:04.572Z,110.90
2023-04-11T13:53:32.174Z,73.75
2023-04-11T13:55:59.962Z,57.35
2023-04-11T13:58:28.699Z,80.20
2023-04-11T14:00:56.836Z,67.25
2023-04-11T14:03:30.278Z,66.07
2023-04-11T14:05:58.727Z,55.33
2023-04-11T14:08:26.793Z,46.25
2023-04-11T14:10:54.817Z,72.22
2023-04-11T14:13:22.780Z,35.42
2023-04-11T14:16:04.968Z,37.00
2023-04-11T14:18:38.554Z,18.42
2023-04-11T14:21:07.414Z,21.50
2023-04-11T14:23:35.240Z,27.73
2023-04-11T14:26:03.714Z,41.92
2023-04-11T14:28:33.976Z,42.35
2023-04-11T14:31:02.005Z,37.45
2023-04-11T14:33:30.326Z,36.30
2023-04-11T14:35:59.120Z,37.90
2023-04-11T14:38:26.937Z,54.65
2023-04-11T14:40:54.795Z,32.35
2023-04-11T14:43:22.827Z,52.08
2023-04-11T14:45:51.159Z,64.22
2023-04-11T14:48:18.904Z,64.88
2023-04-11T14:50:46.720Z,64.45
2023-04-11T14:53:14.464Z,83.18
2023-04-11T14:55:44.672Z,81.93
2023-04-11T14:58:15.659Z,65.47
2023-04-11T15:00:43.863Z,73.30
2023-04-11T15:03:12.494Z,65.25
2023-04-11T15:05:40.556Z,60.97
2023-04-11T15:08:08.350Z,74.10
2023-04-11T15:10:36.373Z,59.50
2023-04-11T15:13:11.985Z,54.38
2023-04-11T15:15:39.915Z,68.13
2023-04-11T15:18:29.504Z,74.32
2023-04-11T15:20:57.917Z,67.05
2023-04-11T15:23:26.451Z,60.88
2023-04-11T15:25:55.025Z,81.75
2023-04-11T15:28:22.836Z,67.22
2023-04-11T15:30:52.649Z,75.63
2023-04-11T15:33:22.267Z,42.33
2023-04-11T15:35:50.224Z,67.95
2023-04-11T15:38:18.732Z,67.38
2023-04-11T15:40:54.657Z,71.18
2023-04-11T15:45:52.494Z,77.32
2023-04-11T15:48:21.014Z,69.40
2023-04-11T15:50:48.909Z,58.38
2023-04-11T15:53:17.059Z,69.53
2023-04-11T15:55:45.033Z,67.63
2023-04-11T15:58:15.134Z,58.20
2023-04-11T16:00:44.087Z,56.97
2023-04-11T16:03:12.396Z,47.15
2023-04-11T16:05:43.222Z,49.03
2023-04-11T16:08:11.270Z,67.43
2023-04-11T16:10:39.210Z,75.28
2023-04-11T16:13:07.109Z,56.17
2023-04-11T16:15:36.113Z,59.38
2023-04-11T16:18:04.514Z,63.40
2023-04-11T16:20:34.076Z,67.97
2023-04-11T16:23:01.678Z,50.00
2023-04-11T16:25:29.363Z,65.55
2023-04-11T16:27:57.144Z,54.95
2023-04-11T16:30:26.380Z,57.85
2023-04-11T16:32:54.589Z,53.65
2023-04-11T16:35:22.675Z,35.40
2023-04-11T16:37:50.310Z,49.92
2023-04-11T16:40:18.144Z,25.95
2023-04-11T16:42:45.822Z,74.43
2023-04-11T16:45:13.638Z,72.82
2023-04-11T16:47:41.371Z,55.70
2023-04-11T16:50:09.491Z,62.33
2023-04-11T16:52:37.315Z,73.07
2023-04-11T16:55:05.808Z,63.95
2023-04-11T16:57:33.662Z,34.85
2023-04-11T17:00:06.800Z,58.03
2023-04-11T17:02:34.770Z,66.97
2023-04-11T17:05:05.471Z,68.60
2023-04-11T17:07:33.573Z,66.25
2023-04-11T17:10:01.514Z,62.63
2023-04-11T17:12:29.498Z,55.30
2023-04-11T17:14:59.588Z,56.30
2023-04-11T17:17:27.232Z,53.33
2023-04-11T17:19:54.934Z,45.45
2023-04-11T17:22:22.922Z,52.50
2023-04-11T17:24:50.572Z,50.03
2023-04-11T17:27:18.312Z,40.92
2023-04-11T17:29:46.258Z,60.88
2023-04-11T17:32:13.999Z,70.05
2023-04-11T17:34:42.036Z,29.83
2023-04-11T17:37:10.467Z,25.98
2023-04-11T17:39:38.247Z,34.08
2023-04-11T17:42:06.609Z,34.42
2023-04-11T17:44:34.530Z,41.13
2023-04-11T17:47:02.030Z,31.88
2023-04-11T17:49:29.890Z,31.33
2023-04-11T17:51:59.696Z,26.50
2023-04-11T17:54:27.641Z,33.80
2023-04-11T17:56:56.370Z,28.73
2023-04-11T17:59:25.546Z,27.42
2023-04-11T18:01:56.366Z,21.65
2023-04-11T18:04:24.205Z,31.00
2023-04-11T18:06:52.119Z,33.38
2023-04-11T18:09:20.346Z,36.38
2023-04-11T18:11:48.079Z,39.92
2023-04-11T18:14:15.828Z,26.48
2023-04-11T18:16:43.473Z,42.63
2023-04-11T18:19:11.236Z,35.38
2023-04-11T18:21:41.750Z,40.72
2023-04-11T18:24:09.271Z,34.50
2023-04-11T18:26:37.104Z,41.47
2023-04-11T18:29:07.284Z,31.92
2023-04-11T18:31:35.443Z,36.15
2023-04-11T18:34:03.817Z,57.35
2023-04-11T18:36:32.663Z,64.25
2023-04-11T18:39:00.754Z,48.63
2023-04-11T18:41:28.486Z,68.00
2023-04-11T18:43:56.631Z,77.88
2023-04-11T18:46:24.285Z,58.17
2023-04-11T18:48:52.151Z,61.25
2023-04-11T18:51:21.227Z,55.47
2023-04-11T18:53:49.193Z,65.90
2023-04-11T18:56:16.976Z,28.85
2023-04-11T18:58:46.602Z,47.55
2023-04-11T19:01:17.390Z,61.05
2023-04-11T19:03:46.316Z,57.85
2023-04-11T19:06:14.471Z,64.53
2023-04-11T19:08:42.170Z,44.40
2023-04-11T19:11:10.065Z,52.63
2023-04-11T19:13:37.882Z,64.03
2023-04-11T19:16:05.949Z,76.22
2023-04-11T19:18:33.739Z,41.50
2023-04-11T19:21:02.208Z,62.70
2023-04-11T19:23:29.863Z,68.25
2023-04-11T19:26:00.533Z,54.58
2023-04-11T19:28:28.370Z,31.63
2023-04-11T19:30:56.062Z,62.88
2023-04-11T19:33:26.120Z,24.88
2023-04-11T19:35:54.924Z,39.17
2023-04-11T19:38:22.754Z,36.80
2023-04-11T19:40:50.595Z,36.72
2023-04-11T19:43:18.271Z,36.58
2023-04-11T19:45:46.641Z,31.73
2023-04-11T19:48:16.304Z,28.65
2023-04-11T19:50:44.030Z,33.10
2023-04-11T19:53:11.848Z,26.17
2023-04-11T19:55:39.567Z,36.58
2023-04-11T19:58:07.321Z,38.85
2023-04-11T20:00:37.700Z,31.92
2023-04-11T20:03:07.563Z,34.88
2023-04-11T20:05:36.295Z,39.80
2023-04-11T20:08:04.130Z,36.70
2023-04-11T20:10:31.894Z,30.65
2023-04-11T20:12:59.681Z,33.58
2023-04-11T20:15:27.312Z,40.42
2023-04-11T20:17:55.219Z,36.17
2023-04-11T20:20:25.585Z,35.13
2023-04-11T20:22:53.755Z,34.35
2023-04-11T20:25:21.629Z,23.60
2023-04-11T20:27:49.426Z,35.63
2023-04-11T20:30:17.398Z,39.83
2023-04-11T20:32:47.533Z,64.25
2023-04-11T20:35:16.228Z,69.18
2023-04-11T20:37:43.958Z,93.25
2023-04-11T20:40:13.537Z,79.07
2023-04-11T20:42:42.650Z,44.97
2023-04-11T20:45:11.474Z,41.00
2023-04-11T20:47:39.497Z,34.78
2023-04-11T20:50:13.329Z,34.28
2023-04-11T20:52:45.762Z,45.28
2023-04-11T20:55:14.640Z,32.90
2023-04-11T20:57:42.361Z,43.55
2023-04-11T21:00:14.153Z,36.45
2023-04-11T21:02:44.511Z,39.83
2023-04-11T21:05:14.846Z,34.90
2023-04-11T21:07:43.393Z,36.30
2023-04-11T21:10:12.305Z,44.70
2023-04-11T21:12:43.187Z,35.78
2023-04-11T21:15:11.947Z,38.28
2023-04-11T21:17:39.820Z,35.70
2023-04-11T21:20:18.115Z,32.67
2023-04-11T21:22:46.507Z,34.63
2023-04-11T21:25:14.269Z,29.77
2023-04-11T21:27:41.977Z,8.93
2023-04-11T21:30:10.384Z,32.78
2023-04-11T21:32:38.287Z,25.35
2023-04-11T21:35:07.241Z,38.60
2023-04-11T21:37:35.624Z,30.85
2023-04-11T21:40:03.682Z,30.13
2023-04-11T21:42:31.744Z,40.05
2023-04-11T21:44:59.420Z,34.15
2023-04-11T21:47:29.751Z,27.95
2023-04-11T21:49:57.598Z,46.08
2023-04-11T21:52:25.445Z,34.17
2023-04-11T21:54:53.166Z,33.53
2023-04-11T21:57:21.368Z,44.15
2023-04-11T21:59:49.027Z,44.20
2023-04-11T22:02:17.007Z,35.75
2023-04-11T22:04:56.382Z,48.17
2023-04-11T22:07:48.570Z,45.65
2023-04-11T22:10:22.331Z,38.08
2023-04-11T22:12:50.526Z,40.28
2023-04-11T22:15:20.860Z,29.67
2023-04-11T22:17:51.385Z,31.20
2023-04-11T22:20:20.078Z,33.78
2023-04-11T22:22:48.175Z,30.20
2023-04-11T22:25:18.344Z,28.95
2023-04-11T22:27:46.265Z,30.17
2023-04-11T22:30:14.693Z,28.45
2023-04-11T22:32:42.381Z,13.48
2023-04-11T22:35:10.592Z,7.68
2023-04-11T22:37:38.759Z,10.27
2023-04-11T22:40:06.686Z,54.97
2023-04-11T22:42:34.837Z,71.22
2023-04-11T22:45:03.043Z,75.93
2023-04-11T22:47:32.688Z,57.25
2023-04-11T22:50:01.598Z,72.28
2023-04-11T22:52:30.218Z,56.83
2023-04-11T22:54:58.175Z,65.28
2023-04-11T22:57:26.101Z,65.18
2023-04-11T22:59:53.896Z,49.97
2023-04-11T23:02:23.598Z,73.25
2023-04-11T23:07:19.166Z,58.42
2023-04-11T23:09:47.337Z,82.57
2023-04-11T23:12:14.953Z,73.47
2023-04-11T23:14:42.729Z,88.43
2023-04-11T23:17:10.466Z,72.25
2023-04-11T23:19:38.089Z,78.85
2023-04-11T23:22:08.262Z,40.67
2023-04-11T23:24:36.237Z,60.67
2023-04-11T23:27:03.962Z,60.38
2023-04-11T23:29:32.016Z,46.05
2023-04-11T23:31:59.790Z,61.28
2023-04-11T23:34:28.148Z,46.00
2023-04-11T23:36:57.644Z,50.13
2023-04-11T23:39:27.731Z,42.95
2023-04-11T23:41:55.376Z,38.70
2023-04-11T23:44:22.978Z,47.72
2023-04-11T23:46:50.806Z,45.42
2023-04-11T23:49:18.593Z,36.60
2023-04-11T23:51:46.591Z,35.95
2023-04-11T23:54:14.413Z,32.97
2023-04-11T23:56:43.931Z,47.97
2023-04-11T23:59:11.678Z,35.92
